MST,Max TemperatureF,Mean TemperatureF,Min TemperatureF,Max Dew PointF,MeanDew PointF,Min DewpointF,Max Humidity, Mean Humidity, Min Humidity, Max Sea Level PressureIn, Mean Sea Level PressureIn, Min Sea Level PressureIn, Max VisibilityMiles, Mean VisibilityMiles, Min VisibilityMiles, Max Wind SpeedMPH, Mean Wind SpeedMPH, Max Gust SpeedMPH,PrecipitationIn, CloudCover, Events, WindDirDegrees
2013-2-1,66,50,35,27,22,14,65,38,13,30.27,30.18,30.11,10,10,10,68,5,124,0.00,3,,130
2013-2-2,69,56,42,24,20,13,49,29,12,30.26,30.19,30.13,10,10,10,9,2,,0.00,0,,141
2013-2-3,61,54,48,40,29,18,66,43,22,30.11,30.03,29.96,10,10,9,22,4,31,0.02,4,Rain,233
2013-2-4,62,52,42,37,35,30,71,52,34,30.07,29.99,29.93,10,10,10,13,6,,0.00,5,,245
2013-2-5,64,52,41,37,34,28,76,51,26,30.03,29.96,29.90,10,10,10,14,6,,0.00,1,,235
2013-2-6,62,52,41,36,32,27,76,51,26,30.03,29.95,29.89,10,10,10,20,7,24,0.00,4,,247
2013-2-7,62,52,41,36,29,21,70,46,22,30.10,30.03,29.97,10,10,10,10,6,,0.00,2,,211
2013-2-8,62,52,42,25,17,1,49,27,9,29.97,29.84,29.70,10,10,10,31,12,40,0.00,5,,197
2013-2-9,46,38,30,31,25,15,93,64,30,30.04,29.89,29.70,10,7,0,25,19,36,0.02,4,Fog-Rain-Snow,259
2013-2-10,53,40,28,22,13,-13,69,40,6,30.03,29.98,29.89,10,10,10,23,7,30,0.00,0,,216
2013-2-11,46,37,28,34,21,7,93,62,28,30.10,29.99,29.92,10,7,0,20,7,29,0.11,5,Fog-Rain-Snow,262
2013-2-12,42,33,24,27,23,16,100,74,34,30.27,30.18,30.11,10,6,0,10,5,,0.00,2,Fog,199
2013-2-13,53,40,28,23,17,9,69,45,16,30.19,30.13,30.07,10,10,10,9,4,,0.00,0,,135
2013-2-14,60,46,33,23,18,16,56,36,17,30.12,30.08,30.01,10,10,10,9,3,,0.00,2,,236
2013-2-15,62,50,39,41,16,-2,87,32,7,30.26,30.18,30.09,10,10,10,14,4,20,0.00,4,,96
2013-2-16,64,50,35,16,9,3,42,22,9,30.29,30.17,30.02,10,10,10,13,9,18,0.00,0,,138
2013-2-17,68,54,39,11,6,3,32,17,8,30.00,29.92,29.83,10,10,10,25,10,34,0.00,0,,236
2013-2-18,64,50,37,15,8,1,34,18,8,30.05,29.97,29.89,10,10,4,18,8,,0.00,0,,221
2013-2-19,60,53,46,30,18,7,41,26,16,29.91,29.79,29.63,10,10,10,36,14,45,0.00,3,,189
2013-2-20,46,38,30,34,27,14,100,75,27,29.88,29.73,29.60,10,5,0,25,16,43,0.01,6,Fog-Rain-Snow,254
2013-2-21,44,34,24,28,25,19,80,64,46,30.04,29.98,29.92,10,10,10,16,8,,0.00,3,,236
2013-2-22,51,42,32,30,27,19,81,62,28,30.14,30.04,29.96,10,10,10,15,6,25,0.00,1,,261
2013-2-23,63,46,30,26,22,11,79,45,13,30.12,29.96,29.83,10,10,10,21,5,25,0.00,0,,199
2013-2-24,48,40,30,22,10,-8,50,29,11,30.04,29.86,29.72,10,10,9,39,16,48,0.00,0,,275
2013-2-25,53,40,28,12,9,5,47,30,15,30.19,30.10,30.03,10,10,10,13,8,,0.00,0,,260
2013-2-26,62,46,30,16,9,-2,51,28,7,30.05,29.99,29.95,10,10,6,18,5,24,0.00,1,,277
2013-2-27,57,44,30,12,6,-2,44,24,9,30.21,30.13,30.05,10,10,10,12,6,,0.00,3,,220
2013-2-28,59,46,33,10,2,-8,32,19,6,30.31,30.23,30.14,10,10,10,13,4,20,0.00,0,,51